Time;durP1;ratioP1;P1;durP2;ratioP2;P2;SDS_P1;SDS_P2;PMS_P1;PMS_P2;Temp;Humidity;BMP_temperature;BMP_pressure;BME280_temperature;BME280_humidity;BME280_pressure;Samples;Min_cycle;Max_cycle;Signal;HPM_P1;HPM_P2
2023/01/14 00:01:46;;;;;;;21.88;4.57;;;;;;;5.90;90.07;101368.75;5021955;28;20037;-56
2023/01/14 00:04:12;;;;;;;21.33;4.72;;;;;;;5.86;90.20;101367.28;5024545;28;20045;-58
2023/01/14 00:06:37;;;;;;;21.15;4.88;;;;;;;5.84;89.70;101370.97;5024637;28;20120;-59
2023/01/14 00:09:11;;;;;;;27.50;5.45;;;;;;;5.83;90.60;101382.47;5025935;28;20083;-56
2023/01/14 00:11:51;;;;;;;18.45;4.45;;;;;;;5.81;90.36;101384.41;5024403;28;20033;-57
2023/01/14 00:14:20;;;;;;;24.85;5.20;;;;;;;5.77;90.27;101389.88;5023607;28;20942;-56
2023/01/14 00:16:46;;;;;;;25.55;5.15;;;;;;;5.77;90.19;101389.88;5024531;28;20026;-57
2023/01/14 00:19:12;;;;;;;24.33;4.90;;;;;;;5.73;90.66;101382.34;5023293;28;20040;-57
2023/01/14 00:21:40;;;;;;;23.15;5.13;;;;;;;5.70;90.16;101388.66;5024100;28;20038;-57
2023/01/14 00:24:06;;;;;;;23.30;4.57;;;;;;;5.68;90.53;101389.75;5027065;28;20045;-56
2023/01/14 00:26:32;;;;;;;22.05;4.80;;;;;;;5.67;90.32;101386.25;5021509;28;20396;-57
2023/01/14 00:28:57;;;;;;;25.65;4.68;;;;;;;5.64;90.53;101379.44;5026253;28;20025;-56
2023/01/14 00:31:26;;;;;;;24.15;5.30;;;;;;;5.64;90.83;101381.25;5021562;28;20033;-57
2023/01/14 00:33:53;;;;;;;21.15;5.03;;;;;;;5.70;89.75;101372.88;5025015;28;20057;-57
2023/01/14 00:36:21;;;;;;;24.17;4.88;;;;;;;5.61;90.22;101373.56;5024599;28;20465;-57
2023/01/14 00:38:47;;;;;;;23.00;5.57;;;;;;;5.58;91.50;101369.38;5020755;28;20037;-56
2023/01/14 00:41:20;;;;;;;26.23;5.80;;;;;;;5.56;91.28;101373.06;5023601;28;20046;-56
2023/01/14 00:43:54;;;;;;;27.92;5.15;;;;;;;5.55;91.47;101374.88;5024551;28;20037;-56
2023/01/14 00:46:21;;;;;;;28.27;5.60;;;;;;;5.57;91.09;101380.84;5022312;28;20046;-57
2023/01/14 00:48:47;;;;;;;28.23;5.45;;;;;;;5.57;92.00;101377.41;5022746;28;20079;-58
2023/01/14 00:51:13;;;;;;;33.83;6.65;;;;;;;5.55;92.23;101389.81;5022057;28;20715;-56
2023/01/14 00:53:40;;;;;;;29.55;5.47;;;;;;;5.52;92.59;101375.94;5020794;28;20037;-56
2023/01/14 00:56:06;;;;;;;33.90;5.97;;;;;;;5.45;93.30;101380.00;5023513;28;20033;-56
2023/01/14 00:58:32;;;;;;;25.02;4.85;;;;;;;5.48;93.47;101378.94;5021913;28;20025;-56
2023/01/14 01:00:57;;;;;;;31.40;5.80;;;;;;;5.48;93.11;101379.75;5022234;28;20029;-57
2023/01/14 01:03:23;;;;;;;31.77;5.57;;;;;;;5.46;93.79;101384.28;5024272;28;20104;-56
2023/01/14 01:05:49;;;;;;;28.65;5.40;;;;;;;5.44;93.74;101388.84;5019598;28;20033;-57
2023/01/14 01:08:18;;;;;;;31.10;6.30;;;;;;;5.44;94.02;101390.63;5020423;28;20025;-58
2023/01/14 01:10:48;;;;;;;35.38;5.40;;;;;;;5.39;94.71;101390.97;5018695;28;20384;-58
2023/01/14 01:13:14;;;;;;;32.67;6.32;;;;;;;5.44;94.01;101399.38;5019287;28;20037;-57
2023/01/14 01:15:41;;;;;;;32.75;5.88;;;;;;;5.44;93.85;101396.72;5019860;28;20036;-57
2023/01/14 01:18:08;;;;;;;36.03;5.90;;;;;;;5.45;94.41;101382.63;5021008;28;20052;-57
2023/01/14 01:20:33;;;;;;;32.83;5.68;;;;;;;5.51;93.66;101384.78;5021626;28;20058;-56
2023/01/14 01:22:59;;;;;;;33.10;5.95;;;;;;;5.40;94.26;101390.00;5022127;28;20036;-56
2023/01/14 01:25:24;;;;;;;31.20;5.40;;;;;;;5.36;95.01;101385.91;5021183;28;20056;-56
2023/01/14 01:27:50;;;;;;;36.25;6.32;;;;;;;5.38;94.26;101386.66;5023791;28;20025;-57
2023/01/14 01:30:16;;;;;;;30.90;6.13;;;;;;;5.40;94.22;101387.38;5023212;28;20225;-56
2023/01/14 01:32:41;;;;;;;28.75;5.40;;;;;;;5.33;95.15;101383.53;5021592;28;20049;-56
2023/01/14 01:35:08;;;;;;;36.40;6.00;;;;;;;5.31;95.38;101388.91;5021073;28;20038;-58
2023/01/14 01:37:33;;;;;;;33.22;6.30;;;;;;;5.28;95.55;101383.03;5019782;28;20026;-56
2023/01/14 01:39:59;;;;;;;39.15;5.85;;;;;;;5.27;95.64;101376.91;5025146;28;20022;-57
2023/01/14 01:42:28;;;;;;;37.35;5.95;;;;;;;5.28;95.98;101383.03;5018819;28;20025;-57
2023/01/14 01:44:53;;;;;;;40.63;5.97;;;;;;;5.28;95.94;101383.03;5019688;28;20088;-56
2023/01/14 01:47:19;;;;;;;36.92;5.85;;;;;;;5.23;96.32;101386.00;5022231;28;20033;-57
2023/01/14 01:49:46;;;;;;;33.30;5.65;;;;;;;5.20;96.46;101381.81;5019645;28;20472;-55
2023/01/14 01:52:20;;;;;;;38.35;6.50;;;;;;;5.34;95.49;101377.31;5019886;28;20045;-57
2023/01/14 01:54:54;;;;;;;35.83;6.07;;;;;;;5.27;95.97;101376.91;5019327;28;20505;-57
2023/01/14 01:57:20;;;;;;;37.78;6.15;;;;;;;5.25;96.40;101386.72;5023395;28;20033;-55
2023/01/14 01:59:52;;;;;;;39.60;6.25;;;;;;;5.20;96.59;101379.19;5022122;28;20022;-56
2023/01/14 02:02:19;;;;;;;34.47;5.83;;;;;;;5.20;96.91;101381.81;5024709;28;20037;-56
2023/01/14 02:04:44;;;;;;;28.25;5.68;;;;;;;5.18;96.68;101385.50;5020541;28;20678;-57
2023/01/14 02:07:20;;;;;;;33.83;6.43;;;;;;;5.23;97.09;101371.06;5017657;28;20030;-57
2023/01/14 02:09:48;;;;;;;38.72;5.85;;;;;;;5.18;96.98;101365.28;5019153;28;20033;-57
2023/01/14 02:12:38;;;;;;;38.70;6.10;;;;;;;5.24;97.00;101371.91;5018675;28;20148;-57
2023/01/14 02:15:16;;;;;;;39.80;6.13;;;;;;;5.17;97.33;101361.00;5020650;28;20037;-56
2023/01/14 02:18:07;;;;;;;35.22;5.90;;;;;;;5.16;97.48;101354.06;5024928;28;20665;-57
2023/01/14 02:20:38;;;;;;;39.72;5.97;;;;;;;5.11;97.74;101340.41;5021158;28;20029;-57
2023/01/14 02:23:34;;;;;;;34.17;6.18;;;;;;;5.13;98.02;101333.22;5025767;28;20041;-57
2023/01/14 02:26:18;;;;;;;30.65;5.63;;;;;;;5.11;97.93;101324.63;5025143;28;20048;-58
2023/01/14 02:29:21;;;;;;;36.47;6.65;;;;;;;5.07;98.51;101317.91;5027204;28;20477;-56
2023/01/14 02:31:59;;;;;;;34.73;5.53;;;;;;;5.03;98.29;101300.72;5024331;28;20032;-58
2023/01/14 02:34:44;;;;;;;34.28;6.05;;;;;;;4.98;98.67;101304.50;5026364;28;20406;-56
2023/01/14 02:37:14;;;;;;;37.05;6.00;;;;;;;4.96;98.75;101300.31;5022893;28;20489;-56
2023/01/14 02:39:48;;;;;;;37.03;5.80;;;;;;;4.95;98.97;101288.94;5022897;28;20132;-59
2023/01/14 02:45:36;;;;;;;32.85;5.32;;;;;;;4.91;99.24;101277.00;5024720;28;20107;-56
2023/01/14 02:48:04;;;;;;;38.92;6.05;;;;;;;4.92;99.53;101283.94;5026953;28;20049;-57
2023/01/14 02:50:31;;;;;;;35.30;6.03;;;;;;;4.89;100.00;101278.91;5024722;28;20038;-56
2023/01/14 02:52:57;;;;;;;37.15;5.75;;;;;;;4.90;99.75;101275.34;5028711;28;20045;-57
2023/01/14 02:55:32;;;;;;;36.67;5.97;;;;;;;4.90;99.93;101275.34;5023216;28;20368;-57
2023/01/14 02:58:28;;;;;;;32.90;5.65;;;;;;;4.91;100.00;101279.63;5023162;28;20067;-56
2023/01/14 03:01:26;;;;;;;30.13;5.85;;;;;;;4.91;99.74;101271.75;5024409;28;20130;-57
2023/01/14 03:04:20;;;;;;;33.17;5.93;;;;;;;4.91;100.00;101277.00;5017771;28;21005;-56
2023/01/14 03:06:54;;;;;;;36.33;5.45;;;;;;;4.90;100.00;101283.22;5023212;28;20591;-57
2023/01/14 03:09:29;;;;;;;31.05;5.80;;;;;;;4.89;100.00;101271.00;5023977;28;20048;-57
2023/01/14 03:12:03;;;;;;;31.75;5.43;;;;;;;4.88;100.00;101258.81;5022752;28;20116;-56
2023/01/14 03:14:40;;;;;;;33.35;5.65;;;;;;;4.88;100.00;101258.81;5022873;28;20080;-57
2023/01/14 03:17:20;;;;;;;39.10;5.57;;;;;;;4.89;100.00;101249.16;5021594;28;20037;-57
2023/01/14 03:20:10;;;;;;;36.92;5.80;;;;;;;4.89;100.00;101236.84;5022361;28;20034;-56
2023/01/14 03:22:36;;;;;;;30.33;5.60;;;;;;;4.87;100.00;101230.88;5023611;28;20103;-56
2023/01/14 03:25:03;;;;;;;32.40;5.65;;;;;;;4.88;100.00;101239.59;5022474;28;20037;-57
2023/01/14 03:27:33;;;;;;;36.83;5.50;;;;;;;4.86;100.00;101231.84;5021427;28;20029;-56
2023/01/14 03:30:04;;;;;;;34.83;5.72;;;;;;;4.90;100.00;101243.81;5021432;28;20042;-56
2023/01/14 03:32:44;;;;;;;34.65;5.88;;;;;;;4.94;100.00;101229.47;5022296;28;20037;-56
2023/01/14 03:35:17;;;;;;;29.08;5.35;;;;;;;4.93;100.00;101221.72;5021719;28;20034;-58
2023/01/14 03:37:45;;;;;;;;;;;;;;;5.10;100.00;101228.31;5021410;28;20769;-56
2023/01/14 03:40:12;;;;;;;33.67;5.60;;;;;;;4.98;100.00;101222.19;5022369;28;19925;-57
2023/01/14 03:42:44;;;;;;;28.85;5.13;;;;;;;4.98;100.00;101223.03;5022931;28;20033;-56
2023/01/14 03:45:15;;;;;;;30.85;5.75;;;;;;;5.00;100.00;101222.91;5020978;28;20041;-56
2023/01/14 03:47:42;;;;;;;35.60;5.25;;;;;;;5.05;100.00;101227.81;5022991;28;20504;-56
2023/01/14 03:50:12;;;;;;;35.03;5.10;;;;;;;5.04;100.00;101218.28;5024202;28;20090;-57
2023/01/14 03:53:05;;;;;;;36.50;5.50;;;;;;;5.06;100.00;101208.47;5022294;28;20044;-57
2023/01/14 03:55:46;;;;;;;35.75;5.13;;;;;;;5.07;100.00;101197.84;5023071;28;20073;-57
2023/01/14 03:58:32;;;;;;;33.38;5.53;;;;;;;5.12;100.00;101200.09;5025545;28;20036;-57
2023/01/14 04:01:06;;;;;;;30.52;4.68;;;;;;;5.07;100.00;101197.84;5022882;28;20053;-55
2023/01/14 04:03:32;;;;;;;30.83;5.03;;;;;;;5.08;100.00;101201.31;5023388;28;20045;-57
2023/01/14 04:05:58;;;;;;;27.85;5.05;;;;;;;5.09;100.00;101206.44;5021034;28;20100;-56
2023/01/14 04:08:24;;;;;;;32.22;5.30;;;;;;;5.09;100.00;101195.09;5019482;28;20025;-56
2023/01/14 04:10:50;;;;;;;29.40;5.68;;;;;;;5.07;100.00;101181.22;5021917;28;20445;-56
2023/01/14 04:16:01;;;;;;;27.90;5.18;;;;;;;5.09;100.00;101168.81;5023408;28;20044;-57
2023/01/14 04:18:26;;;;;;;33.63;4.85;;;;;;;5.08;100.00;101156.63;5022802;28;20037;-57
2023/01/14 04:20:51;;;;;;;31.27;5.07;;;;;;;5.08;100.00;101156.63;5021905;28;20120;-57
2023/01/14 04:23:17;;;;;;;32.72;5.25;;;;;;;5.09;100.00;101153.03;5027104;28;20067;-56
2023/01/14 04:25:42;;;;;;;31.27;5.22;;;;;;;5.06;100.00;101137.50;5022317;28;20037;-56
2023/01/14 04:28:08;;;;;;;34.53;4.95;;;;;;;5.06;100.00;101137.50;5024037;28;20132;-56
2023/01/14 04:30:33;;;;;;;34.20;5.15;;;;;;;5.04;100.00;101139.41;5019810;28;20155;-56
2023/01/14 04:32:58;;;;;;;33.00;5.13;;;;;;;5.01;100.00;101126.50;5023003;28;20065;-57
2023/01/14 04:35:24;;;;;;;30.73;5.40;;;;;;;4.97;100.00;101118.84;5018222;28;20030;-56
2023/01/14 04:37:51;;;;;;;32.15;4.60;;;;;;;4.98;100.00;101120.53;5021078;28;20037;-56
2023/01/14 04:40:17;;;;;;;28.60;5.22;;;;;;;4.93;100.00;101122.66;5023227;28;20052;-56
2023/01/14 04:42:42;;;;;;;28.85;4.88;;;;;;;4.90;100.00;101125.53;5021479;28;20033;-57
2023/01/14 04:45:08;;;;;;;30.50;5.38;;;;;;;4.87;100.00;101119.69;5017678;28;20061;-57
2023/01/14 04:47:33;;;;;;;27.83;5.03;;;;;;;4.86;100.00;101118.84;5020436;28;20036;-57
2023/01/14 04:50:30;;;;;;;28.80;4.90;;;;;;;4.84;100.00;101116.31;5022896;28;20468;-56
2023/01/14 04:52:44;;;;;;;29.73;5.07;;;;;;;4.86;100.00;101113.56;5020009;28;20842;-57
2023/01/14 04:55:09;;;;;;;31.65;5.60;;;;;;;4.81;100.00;101111.31;5019094;28;20041;-57
2023/01/14 04:57:35;;;;;;;26.63;5.28;;;;;;;4.83;100.00;101108.53;5022985;28;20034;-57
2023/01/14 05:00:00;;;;;;;28.95;4.88;;;;;;;4.85;100.00;101104.84;5020631;28;20044;-56
2023/01/14 05:02:25;;;;;;;35.00;5.68;;;;;;;4.84;100.00;101097.09;5019238;28;20060;-57
2023/01/14 05:04:50;;;;;;;32.35;5.45;;;;;;;4.80;100.00;101090.41;5020588;28;20103;-59
2023/01/14 05:07:16;;;;;;;27.20;4.88;;;;;;;4.83;100.00;101091.00;5018732;28;20035;-56
2023/01/14 05:09:41;;;;;;;35.63;5.30;;;;;;;4.81;100.00;101081.56;5019957;28;20090;-56
2023/01/14 05:12:06;;;;;;;24.20;4.63;;;;;;;4.82;100.00;101089.31;5019789;28;20125;-56
2023/01/14 05:14:31;;;;;;;23.42;4.32;;;;;;;4.83;100.00;101074.38;5019389;28;20492;-57
2023/01/14 05:16:57;;;;;;;30.48;5.07;;;;;;;4.82;100.00;101072.72;5022738;28;20038;-56
2023/01/14 05:19:22;;;;;;;27.00;5.13;;;;;;;4.81;100.00;101074.53;5028208;28;20037;-56
2023/01/14 05:21:48;;;;;;;30.33;5.10;;;;;;;4.80;100.00;101059.69;5029447;28;20083;-57
2023/01/14 05:24:13;;;;;;;31.63;4.75;;;;;;;4.81;100.00;101055.28;5027716;28;20036;-57
2023/01/14 05:26:38;;;;;;;23.90;4.82;;;;;;;4.80;100.00;101051.81;5023007;28;20108;-56
2023/01/14 05:29:03;;;;;;;25.00;4.68;;;;;;;4.82;100.00;101041.19;5027603;28;20034;-56
2023/01/14 05:31:29;;;;;;;28.70;4.47;;;;;;;4.85;100.00;101028.63;5027049;28;20049;-56
2023/01/14 05:33:54;;;;;;;28.50;4.45;;;;;;;4.88;100.00;101027.56;5028909;28;20373;-56
2023/01/14 05:36:19;;;;;;;29.95;4.60;;;;;;;4.90;100.00;101017.78;5022193;28;20021;-56
2023/01/14 05:38:44;;;;;;;24.10;5.05;;;;;;;4.91;100.00;101008.09;5019716;28;20033;-56
2023/01/14 05:41:13;;;;;;;24.80;4.60;;;;;;;4.94;100.00;101000.81;5026609;28;20025;-56
2023/01/14 05:46:22;;;;;;;26.33;4.32;;;;;;;4.95;100.00;100984.06;5027005;28;20170;-56
2023/01/14 05:48:48;;;;;;;29.13;5.03;;;;;;;4.96;100.00;100975.25;5021424;28;20458;-57
2023/01/14 05:51:13;;;;;;;24.50;5.03;;;;;;;5.00;100.00;100975.00;5020811;28;20049;-57
2023/01/14 05:53:39;;;;;;;26.75;4.60;;;;;;;5.00;100.00;100975.84;5024597;28;20030;-57
2023/01/14 05:56:05;;;;;;;26.83;4.25;;;;;;;5.01;100.00;100971.41;5031592;28;20029;-56
2023/01/14 05:58:31;;;;;;;25.15;4.70;;;;;;;5.04;100.00;100953.59;5028822;28;20163;-57
2023/01/14 06:06:34;;;;;;;26.80;4.93;;;;;;;5.07;100.00;100944.63;5021588;28;20032;-56
2023/01/14 06:09:02;;;;;;;25.50;4.05;;;;;;;5.12;100.00;100937.22;5028235;28;20053;-57
2023/01/14 06:11:29;;;;;;;25.67;4.30;;;;;;;5.15;100.00;100931.72;5024214;28;20048;-56
2023/01/14 06:13:57;;;;;;;26.65;4.95;;;;;;;5.17;100.00;100929.81;5022680;28;20033;-58
2023/01/14 06:16:26;;;;;;;26.35;4.60;;;;;;;5.18;100.00;100920.94;5025179;28;20025;-60
2023/01/14 06:18:52;;;;;;;30.42;4.47;;;;;;;5.22;100.00;100917.13;5027023;28;20053;-56
2023/01/14 06:21:20;;;;;;;25.20;4.40;;;;;;;5.23;100.00;100908.28;5034312;28;20070;-57
2023/01/14 06:23:46;;;;;;;26.45;4.40;;;;;;;5.21;100.00;100894.44;5033494;28;20033;-57
2023/01/14 06:26:14;;;;;;;25.77;4.32;;;;;;;5.21;100.00;100899.69;5032661;28;20039;-56
2023/01/14 06:28:40;;;;;;;26.63;4.40;;;;;;;5.23;100.00;100891.69;5029705;28;20087;-56
2023/01/14 06:31:12;;;;;;;23.33;4.20;;;;;;;5.24;100.00;100882.81;5032936;28;20025;-56
2023/01/14 06:33:38;;;;;;;23.08;4.22;;;;;;;5.30;100.00;100877.06;5033767;28;20061;-56
2023/01/14 06:36:04;;;;;;;24.80;4.28;;;;;;;5.29;100.00;100874.56;5024204;28;20461;-56
2023/01/14 06:38:30;;;;;;;26.60;4.20;;;;;;;5.30;100.00;100863.91;5030533;28;20049;-56
2023/01/14 06:40:59;;;;;;;24.10;4.10;;;;;;;5.30;100.00;100855.19;5033203;28;20064;-57
2023/01/14 06:43:25;;;;;;;22.42;3.90;;;;;;;5.29;100.00;100853.53;5033028;28;20056;-57
2023/01/14 06:45:54;;;;;;;26.88;4.28;;;;;;;5.29;100.00;100850.88;5027325;28;20530;-56
2023/01/14 06:48:20;;;;;;;24.23;4.45;;;;;;;5.27;100.00;100856.28;5033283;28;20034;-57
2023/01/14 06:50:45;;;;;;;24.85;4.13;;;;;;;5.28;100.00;100836.09;5032450;28;20408;-57
2023/01/14 06:53:11;;;;;;;23.13;4.55;;;;;;;5.29;100.00;100832.47;5033082;28;20447;-56
2023/01/14 06:55:36;;;;;;;19.42;4.28;;;;;;;5.30;100.00;100832.38;5032359;28;20101;-56
2023/01/14 06:58:01;;;;;;;26.23;4.13;;;;;;;5.29;100.00;100828.06;5029748;28;20562;-56
2023/01/14 07:00:26;;;;;;;26.77;4.60;;;;;;;5.29;100.00;100816.72;5029081;28;20037;-57
2023/01/14 07:02:52;;;;;;;23.30;4.25;;;;;;;5.27;100.00;100813.38;5030309;28;20080;-56
2023/01/14 07:05:17;;;;;;;25.05;4.40;;;;;;;5.26;100.00;100807.28;5020832;28;20045;-56
2023/01/14 07:07:47;;;;;;;24.08;4.47;;;;;;;5.29;100.00;100806.19;5031564;28;20065;-56
2023/01/14 07:10:12;;;;;;;24.27;4.68;;;;;;;5.29;100.00;100793.03;5020543;28;20037;-58
2023/01/14 07:12:38;;;;;;;26.05;4.10;;;;;;;5.28;100.00;100784.31;5027568;28;20083;-57
2023/01/14 07:15:03;;;;;;;24.95;4.53;;;;;;;5.30;100.00;100776.31;5023216;28;20120;-56
2023/01/14 07:17:28;;;;;;;22.73;4.53;;;;;;;5.28;100.00;100772.97;5032707;28;20107;-56
2023/01/14 07:19:54;;;;;;;22.77;4.43;;;;;;;5.25;100.00;100751.22;5032767;28;20508;-57
2023/01/14 07:22:19;;;;;;;21.63;4.05;;;;;;;5.25;100.00;100748.59;5029175;28;20035;-57
2023/01/14 07:24:44;;;;;;;24.05;4.75;;;;;;;5.24;100.00;100744.28;5019217;28;20696;-56
2023/01/14 07:27:09;;;;;;;23.02;4.55;;;;;;;5.22;100.00;100745.38;5031895;28;20037;-56
2023/01/14 07:29:35;;;;;;;19.58;4.22;;;;;;;5.26;100.00;100736.28;5029649;28;20072;-57
2023/01/14 07:32:01;;;;;;;19.42;4.43;;;;;;;5.27;100.00;100735.31;5029997;28;20037;-57
2023/01/14 07:34:26;;;;;;;22.20;4.43;;;;;;;5.29;100.00;100737.81;5026495;28;20021;-57
2023/01/14 07:36:52;;;;;;;18.60;4.20;;;;;;;5.29;100.00;100737.81;5019831;28;20053;-56
2023/01/14 07:39:17;;;;;;;19.98;4.20;;;;;;;5.31;100.00;100725.38;5029455;28;20079;-56
2023/01/14 07:41:42;;;;;;;17.80;4.07;;;;;;;5.30;100.00;100714.03;5030924;28;20033;-57
2023/01/14 07:44:08;;;;;;;21.70;4.47;;;;;;;5.33;100.00;100699.81;5033002;28;20065;-56
2023/01/14 07:46:33;;;;;;;17.33;3.97;;;;;;;5.36;100.00;100691.63;5032766;28;20096;-57
2023/01/14 07:48:59;;;;;;;19.38;4.82;;;;;;;5.33;100.00;100684.03;5023623;28;20033;-57
2023/01/14 07:51:24;;;;;;;21.98;4.40;;;;;;;5.35;100.00;100679.47;5021820;28;20042;-57
2023/01/14 07:53:50;;;;;;;17.77;4.13;;;;;;;5.35;100.00;100671.56;5026746;28;20022;-57
2023/01/14 07:56:16;;;;;;;17.58;4.32;;;;;;;5.38;100.00;100663.44;5026345;28;20081;-57
2023/01/14 07:58:42;;;;;;;15.15;3.88;;;;;;;5.38;100.00;100658.16;5023325;28;20029;-56
2023/01/14 08:01:08;;;;;;;15.60;3.78;;;;;;;5.40;100.00;100640.44;5019511;28;20022;-57
2023/01/14 08:03:34;;;;;;;12.65;3.83;;;;;;;5.39;100.00;100634.34;5022237;28;20041;-56
2023/01/14 08:06:01;;;;;;;12.07;4.00;;;;;;;5.47;100.00;100623.16;5017591;28;20030;-56
2023/01/14 08:08:27;;;;;;;16.10;3.75;;;;;;;5.45;100.00;100622.47;5018552;28;20025;-59
2023/01/14 08:10:53;;;;;;;15.55;3.60;;;;;;;5.46;100.00;100607.50;5024802;28;20507;-60
2023/01/14 08:13:18;;;;;;;15.50;4.05;;;;;;;5.48;100.00;100585.38;5023714;28;20025;-56
2023/01/14 08:15:43;;;;;;;14.98;3.70;;;;;;;5.50;100.00;100591.34;5022416;28;20037;-56
2023/01/14 08:18:09;;;;;;;15.15;4.00;;;;;;;5.52;100.00;100585.94;5023130;28;20402;-56
2023/01/14 08:20:34;;;;;;;13.60;3.42;;;;;;;5.52;100.00;100571.00;5026366;28;20029;-56
2023/01/14 08:23:00;;;;;;;14.80;3.80;;;;;;;5.53;100.00;100563.97;5023912;28;20088;-57
2023/01/14 08:25:26;;;;;;;14.18;3.60;;;;;;;5.56;100.00;100570.72;5020598;28;20389;-58
2023/01/14 08:27:52;;;;;;;8.40;3.33;;;;;;;5.60;100.00;100561.59;5022485;28;20580;-56
2023/01/14 08:30:17;;;;;;;12.15;3.33;;;;;;;5.62;100.00;100541.25;5030922;28;20112;-57
2023/01/14 08:32:43;;;;;;;13.32;3.20;;;;;;;5.64;100.00;100536.69;5027964;28;20207;-56
2023/01/14 08:35:08;;;;;;;12.30;2.97;;;;;;;5.64;100.00;100520.91;5026276;28;20068;-57
2023/01/14 08:37:34;;;;;;;13.30;3.22;;;;;;;5.66;100.00;100518.97;5031156;28;20087;-57
2023/01/14 08:39:59;;;;;;;12.23;3.15;;;;;;;5.69;100.00;100507.34;5023799;28;20030;-57
2023/01/14 08:42:24;;;;;;;13.18;3.25;;;;;;;5.69;100.00;100508.19;5025206;28;20041;-56
2023/01/14 08:44:50;;;;;;;10.60;3.00;;;;;;;5.73;100.00;100491.13;5028474;28;20036;-56
2023/01/14 08:47:15;;;;;;;11.88;3.30;;;;;;;5.74;100.00;100492.81;5020605;28;20438;-57
2023/01/14 08:49:40;;;;;;;8.27;3.25;;;;;;;5.77;100.00;100487.25;5025735;28;20022;-57
2023/01/14 08:52:06;;;;;;;9.95;2.80;;;;;;;5.82;100.00;100486.03;5030535;28;20038;-57
2023/01/14 08:54:32;;;;;;;10.45;2.70;;;;;;;5.81;100.00;100474.66;5031561;28;20037;-57
2023/01/14 08:56:57;;;;;;;9.50;2.75;;;;;;;5.83;100.00;100458.72;5031681;28;20033;-57
2023/01/14 08:59:23;;;;;;;9.93;2.90;;;;;;;5.84;100.00;100441.97;5029615;28;20040;-58
2023/01/14 09:01:49;;;;;;;9.05;2.78;;;;;;;5.86;100.00;100437.38;5025225;28;20103;-57
2023/01/14 09:04:14;;;;;;;10.20;3.20;;;;;;;5.88;100.00;100446.00;5030333;28;20029;-58
2023/01/14 09:17:40;;;;;;;12.18;2.85;;;;;;;5.99;100.00;100414.25;5029638;28;20522;-57
2023/01/14 09:20:11;;;;;;;13.95;3.45;;;;;;;6.00;100.00;100394.84;5024142;28;20026;-56
2023/01/14 09:22:37;;;;;;;10.32;3.25;;;;;;;6.03;100.00;100384.03;5028511;28;20457;-56
2023/01/14 09:25:04;;;;;;;12.10;3.13;;;;;;;6.05;100.00;100381.28;5026310;28;20480;-57
2023/01/14 09:27:31;;;;;;;9.25;2.92;;;;;;;6.10;100.00;100378.22;5022413;28;20115;-57
2023/01/14 09:29:56;;;;;;;10.18;3.00;;;;;;;6.05;100.00;100355.81;5024933;28;20186;-57
2023/01/14 09:32:21;;;;;;;8.00;2.72;;;;;;;6.11;100.00;100364.09;5020843;28;20112;-56
2023/01/14 09:34:49;;;;;;;10.43;2.80;;;;;;;6.12;100.00;100356.03;5027491;28;20018;-56
2023/01/14 09:37:20;;;;;;;10.30;3.08;;;;;;;6.12;100.00;100339.44;5029132;28;20477;-57
2023/01/14 09:39:46;;;;;;;9.52;3.00;;;;;;;6.15;100.00;100350.50;5026117;28;20018;-57
2023/01/14 09:42:16;;;;;;;8.38;2.90;;;;;;;6.21;100.00;100338.53;5026697;28;20485;-57
2023/01/14 09:44:43;;;;;;;13.27;3.40;;;;;;;6.21;100.00;100328.00;5016059;28;20041;-59
2023/01/14 09:47:17;;;;;;;11.70;2.90;;;;;;;6.26;100.00;100322.31;5029937;28;20045;-58
2023/01/14 09:49:43;;;;;;;12.52;2.92;;;;;;;6.25;100.00;100329.38;5020933;28;20041;-57
2023/01/14 09:52:43;;;;;;;10.65;3.10;;;;;;;6.31;100.00;100317.44;5025142;28;20048;-57
2023/01/14 09:55:23;;;;;;;13.38;3.50;;;;;;;6.30;100.00;100316.63;5027799;28;20139;-57
2023/01/14 09:57:55;;;;;;;12.38;3.10;;;;;;;6.26;100.00;100298.63;5021805;28;20057;-58
2023/01/14 10:00:46;;;;;;;15.30;3.15;;;;;;;6.35;100.00;100286.38;5027199;28;20061;-57
2023/01/14 10:03:28;;;;;;;12.00;3.15;;;;;;;6.42;100.00;100298.78;5029559;28;20385;-57
2023/01/14 10:06:01;;;;;;;14.10;3.50;;;;;;;6.37;100.00;100279.16;5024224;28;20386;-57
2023/01/14 10:08:33;;;;;;;16.05;3.30;;;;;;;6.42;100.00;100274.28;5016729;28;20041;-57
2023/01/14 10:11:00;;;;;;;13.38;3.10;;;;;;;6.46;100.00;100278.25;5027206;28;20123;-57
2023/01/14 10:13:32;;;;;;;11.60;3.30;;;;;;;6.45;100.00;100258.16;5029223;28;20037;-57
2023/01/14 10:16:08;;;;;;;11.82;3.28;;;;;;;6.53;100.00;100226.66;5030658;28;20026;-58
2023/01/14 10:19:30;;;;;;;15.82;3.33;;;;;;;6.56;100.00;100228.16;5030511;28;20089;-57
2023/01/14 10:22:06;;;;;;;11.45;3.10;;;;;;;6.65;100.00;100211.44;5011919;28;20049;-57
2023/01/14 10:24:31;;;;;;;10.48;3.20;;;;;;;6.64;100.00;100214.22;5023286;28;20489;-58
2023/01/14 10:26:57;;;;;;;11.50;3.10;;;;;;;6.71;100.00;100217.94;5028838;28;20097;-57
2023/01/14 10:29:26;;;;;;;9.60;3.00;;;;;;;6.73;100.00;100200.16;5020154;28;20046;-58
2023/01/14 10:31:55;;;;;;;10.95;3.25;;;;;;;6.78;100.00;100183.88;5029454;28;20083;-58
2023/01/14 10:34:35;;;;;;;10.05;2.90;;;;;;;6.85;100.00;100183.13;5021256;28;20030;-57
2023/01/14 10:37:00;;;;;;;10.43;2.97;;;;;;;6.89;100.00;100188.06;5024540;28;20057;-56
2023/01/14 10:39:26;;;;;;;8.77;2.85;;;;;;;6.91;100.00;100172.94;5027436;28;20030;-59
2023/01/14 10:41:51;;;;;;;9.48;3.10;;;;;;;6.92;100.00;100177.22;5030061;28;20458;-58
2023/01/14 10:44:34;;;;;;;6.40;2.60;;;;;;;6.99;100.00;100167.72;5029593;28;20736;-55
2023/01/14 10:47:08;;;;;;;7.60;2.60;;;;;;;6.97;100.00;100153.88;5022033;28;20046;-59
2023/01/14 10:49:43;;;;;;;9.70;2.83;;;;;;;7.03;100.00;100141.88;5032911;28;20037;-57
2023/01/14 10:52:23;;;;;;;11.40;3.00;;;;;;;7.05;100.00;100124.09;5022914;28;20049;-56
2023/01/14 10:55:16;;;;;;;11.15;2.95;;;;;;;7.08;100.00;100108.81;5023546;28;20164;-57
2023/01/14 10:58:08;;;;;;;7.82;2.58;;;;;;;7.10;100.00;100127.91;5033521;28;20044;-57
2023/01/14 11:00:42;;;;;;;6.13;2.40;;;;;;;7.21;100.00;100113.63;5022036;28;20116;-56
2023/01/14 11:03:28;;;;;;;8.52;2.40;;;;;;;7.23;100.00;100103.75;5025918;28;20396;-56
2023/01/14 11:05:56;;;;;;;8.65;2.40;;;;;;;7.27;100.00;100093.72;5019613;28;20034;-62
2023/01/14 11:08:32;;;;;;;6.43;2.40;;;;;;;7.23;100.00;100073.91;5030831;28;20033;-57
2023/01/14 11:11:01;;;;;;;5.68;2.35;;;;;;;7.28;100.00;100082.19;5022214;28;20818;-58
2023/01/14 11:13:41;;;;;;;10.75;3.20;;;;;;;7.34;100.00;100057.81;5031279;28;20029;-57
2023/01/14 11:16:29;;;;;;;5.03;2.15;;;;;;;7.37;100.00;100059.31;5032441;28;20108;-57
2023/01/14 11:19:14;;;;;;;4.78;2.25;;;;;;;7.36;100.00;100061.09;5020955;28;20049;-57
2023/01/14 11:21:42;;;;;;;5.45;2.38;;;;;;;7.38;100.00;100048.59;5031665;28;20381;-57
2023/01/14 11:24:41;;;;;;;6.63;2.03;;;;;;;7.45;100.00;100046.13;5030626;28;20029;-57
2023/01/14 11:27:16;;;;;;;7.40;2.40;;;;;;;7.45;100.00;100042.69;5026883;28;20037;-57
2023/01/14 11:30:09;;;;;;;7.60;2.30;;;;;;;7.44;100.00;100039.22;5028940;28;20080;-55
2023/01/14 11:32:36;;;;;;;4.72;2.28;;;;;;;7.52;100.00;100035.78;5025917;28;20088;-57
2023/01/14 11:35:04;;;;;;;4.93;2.08;;;;;;;7.56;100.00;100021.28;5016646;28;20629;-57
2023/01/14 11:37:45;;;;;;;3.70;2.10;;;;;;;7.53;100.00;100000.47;5029818;28;20112;-57
2023/01/14 11:41:28;;;;;;;2.83;1.83;;;;;;;7.57;100.00;99999.19;5023612;28;20489;-57
2023/01/14 11:43:13;;;;;;;4.93;2.00;;;;;;;7.56;100.00;100000.16;5028436;28;20045;-57
2023/01/14 11:45:39;;;;;;;5.38;2.10;;;;;;;7.59;100.00;99999.84;5029543;28;20064;-57
2023/01/14 11:48:22;;;;;;;5.50;2.10;;;;;;;7.58;100.00;99992.91;5013098;28;20389;-60
2023/01/14 11:51:03;;;;;;;2.33;1.80;;;;;;;7.65;100.00;99993.91;5042740;28;20033;-57
2023/01/14 11:53:42;;;;;;;2.85;1.65;;;;;;;7.61;100.00;99965.38;5026193;28;20033;-57
2023/01/14 11:56:15;;;;;;;5.53;1.98;;;;;;;7.66;100.00;99968.34;5027027;28;20033;-57
2023/01/14 11:58:41;;;;;;;3.05;1.90;;;;;;;7.66;100.00;99969.16;5017200;28;20045;-57
2023/01/14 12:01:32;;;;;;;4.93;1.90;;;;;;;7.71;100.00;99959.94;5022153;28;20026;-57